sensor_id;sensor_type;location;lat;lon;timestamp;pressure;altitude;pressure_sealevel;temperature;humidity
76728;BME280;65652;53.132;18.026;2023-03-01T00:02:22;102624.00;;;-1.26;63.50
76728;BME280;65652;53.132;18.026;2023-03-01T00:04:48;102622.10;;;-1.27;63.84
76728;BME280;65652;53.132;18.026;2023-03-01T00:07:15;102622.27;;;-1.28;63.82
76728;BME280;65652;53.132;18.026;2023-03-01T00:09:41;102625.59;;;-1.29;63.93
76728;BME280;65652;53.132;18.026;2023-03-01T00:12:07;102624.04;;;-1.31;63.93
76728;BME280;65652;53.132;18.026;2023-03-01T00:14:33;102621.13;;;-1.33;64.12
76728;BME280;65652;53.132;18.026;2023-03-01T00:16:59;102622.69;;;-1.35;64.07
76728;BME280;65652;53.132;18.026;2023-03-01T00:19:26;102622.17;;;-1.37;64.07
76728;BME280;65652;53.132;18.026;2023-03-01T00:21:52;102621.83;;;-1.36;64.05
76728;BME280;65652;53.132;18.026;2023-03-01T00:24:18;102618.20;;;-1.38;64.19
76728;BME280;65652;53.132;18.026;2023-03-01T00:26:44;102607.98;;;-1.39;64.12
76728;BME280;65652;53.132;18.026;2023-03-01T00:29:10;102604.86;;;-1.39;64.08
76728;BME280;65652;53.132;18.026;2023-03-01T00:31:37;102603.29;;;-1.37;63.94
76728;BME280;65652;53.132;18.026;2023-03-01T00:34:05;102600.84;;;-1.34;64.18
76728;BME280;65652;53.132;18.026;2023-03-01T00:36:34;102600.11;;;-1.30;64.14
76728;BME280;65652;53.132;18.026;2023-03-01T00:39:03;102594.38;;;-1.26;64.22
76728;BME280;65652;53.132;18.026;2023-03-01T00:41:30;102592.43;;;-1.22;64.03
76728;BME280;65652;53.132;18.026;2023-03-01T00:43:56;102596.20;;;-1.17;64.09
76728;BME280;65652;53.132;18.026;2023-03-01T00:46:25;102594.95;;;-1.13;64.02
76728;BME280;65652;53.132;18.026;2023-03-01T00:48:51;102591.45;;;-1.11;64.01
76728;BME280;65652;53.132;18.026;2023-03-01T00:51:23;102586.45;;;-1.11;64.10
76728;BME280;65652;53.132;18.026;2023-03-01T00:53:51;102587.83;;;-1.12;64.06
76728;BME280;65652;53.132;18.026;2023-03-01T00:56:18;102584.75;;;-1.14;64.14
76728;BME280;65652;53.132;18.026;2023-03-01T00:58:44;102580.08;;;-1.17;64.17
76728;BME280;65652;53.132;18.026;2023-03-01T01:01:19;102579.08;;;-1.21;63.95
76728;BME280;65652;53.132;18.026;2023-03-01T01:03:57;102576.68;;;-1.25;64.27
76728;BME280;65652;53.132;18.026;2023-03-01T01:06:26;102572.91;;;-1.29;64.27
76728;BME280;65652;53.132;18.026;2023-03-01T01:08:53;102567.73;;;-1.34;64.44
76728;BME280;65652;53.132;18.026;2023-03-01T01:11:20;102567.77;;;-1.36;64.41
76728;BME280;65652;53.132;18.026;2023-03-01T01:13:48;102565.54;;;-1.39;64.53
76728;BME280;65652;53.132;18.026;2023-03-01T01:16:16;102558.27;;;-1.41;64.43
76728;BME280;65652;53.132;18.026;2023-03-01T01:18:43;102560.90;;;-1.43;64.37
76728;BME280;65652;53.132;18.026;2023-03-01T01:21:12;102554.18;;;-1.47;64.49
76728;BME280;65652;53.132;18.026;2023-03-01T01:23:39;102551.58;;;-1.48;64.58
76728;BME280;65652;53.132;18.026;2023-03-01T01:26:08;102551.08;;;-1.49;64.63
76728;BME280;65652;53.132;18.026;2023-03-01T01:28:35;102548.48;;;-1.51;64.67
76728;BME280;65652;53.132;18.026;2023-03-01T01:31:01;102542.45;;;-1.52;64.63
76728;BME280;65652;53.132;18.026;2023-03-01T01:33:27;102536.21;;;-1.55;64.60
76728;BME280;65652;53.132;18.026;2023-03-01T01:35:54;102540.91;;;-1.55;64.82
76728;BME280;65652;53.132;18.026;2023-03-01T01:38:21;102537.96;;;-1.57;64.74
76728;BME280;65652;53.132;18.026;2023-03-01T01:40:49;102534.52;;;-1.57;64.82
76728;BME280;65652;53.132;18.026;2023-03-01T01:43:23;102531.74;;;-1.58;64.86
76728;BME280;65652;53.132;18.026;2023-03-01T01:45:50;102531.92;;;-1.59;64.82
76728;BME280;65652;53.132;18.026;2023-03-01T01:48:22;102520.67;;;-1.61;65.08
76728;BME280;65652;53.132;18.026;2023-03-01T01:50:59;102519.98;;;-1.59;64.98
76728;BME280;65652;53.132;18.026;2023-03-01T01:53:26;102516.68;;;-1.59;65.11
76728;BME280;65652;53.132;18.026;2023-03-01T01:55:58;102518.25;;;-1.58;65.14
76728;BME280;65652;53.132;18.026;2023-03-01T01:58:28;102515.64;;;-1.59;65.02
76728;BME280;65652;53.132;18.026;2023-03-01T02:00:55;102513.38;;;-1.58;64.89
76728;BME280;65652;53.132;18.026;2023-03-01T02:03:25;102510.27;;;-1.57;65.01
76728;BME280;65652;53.132;18.026;2023-03-01T02:06:04;102506.27;;;-1.58;65.07
76728;BME280;65652;53.132;18.026;2023-03-01T02:08:35;102508.90;;;-1.61;65.23
76728;BME280;65652;53.132;18.026;2023-03-01T02:11:03;102512.41;;;-1.65;65.16
76728;BME280;65652;53.132;18.026;2023-03-01T02:13:31;102512.06;;;-1.67;65.21
76728;BME280;65652;53.132;18.026;2023-03-01T02:15:59;102511.93;;;-1.70;65.29
76728;BME280;65652;53.132;18.026;2023-03-01T02:18:28;102515.58;;;-1.72;65.28
76728;BME280;65652;53.132;18.026;2023-03-01T02:23:58;102519.20;;;-1.72;65.25
76728;BME280;65652;53.132;18.026;2023-03-01T02:29:03;102519.60;;;-1.77;65.34
76728;BME280;65652;53.132;18.026;2023-03-01T02:31:31;102514.42;;;-1.80;65.45
76728;BME280;65652;53.132;18.026;2023-03-01T02:34:18;102512.35;;;-1.82;65.49
76728;BME280;65652;53.132;18.026;2023-03-01T02:36:51;102510.29;;;-1.82;65.65
76728;BME280;65652;53.132;18.026;2023-03-01T02:39:56;102506.48;;;-1.82;65.79
76728;BME280;65652;53.132;18.026;2023-03-01T02:42:30;102502.13;;;-1.82;65.83
76728;BME280;65652;53.132;18.026;2023-03-01T02:44:57;102495.22;;;-1.82;65.99
76728;BME280;65652;53.132;18.026;2023-03-01T02:47:24;102493.14;;;-1.82;66.05
76728;BME280;65652;53.132;18.026;2023-03-01T02:49:50;102486.73;;;-1.82;65.91
76728;BME280;65652;53.132;18.026;2023-03-01T02:57:23;102493.89;;;-1.89;66.18
76728;BME280;65652;53.132;18.026;2023-03-01T02:59:52;102493.72;;;-1.90;66.27
76728;BME280;65652;53.132;18.026;2023-03-01T03:02:30;102482.13;;;-1.91;66.14
76728;BME280;65652;53.132;18.026;2023-03-01T03:05:14;102483.70;;;-1.92;66.27
76728;BME280;65652;53.132;18.026;2023-03-01T03:07:43;102487.84;;;-1.91;66.15
76728;BME280;65652;53.132;18.026;2023-03-01T03:10:29;102487.48;;;-1.91;66.29
76728;BME280;65652;53.132;18.026;2023-03-01T03:12:59;102486.27;;;-1.89;66.06
76728;BME280;65652;53.132;18.026;2023-03-01T03:15:27;102488.16;;;-1.90;66.04
76728;BME280;65652;53.132;18.026;2023-03-01T03:17:56;102490.45;;;-1.92;66.18
76728;BME280;65652;53.132;18.026;2023-03-01T03:20:25;102485.42;;;-1.93;66.40
76728;BME280;65652;53.132;18.026;2023-03-01T03:22:53;102477.48;;;-1.96;66.63
76728;BME280;65652;53.132;18.026;2023-03-01T03:25:20;102473.16;;;-1.98;66.40
76728;BME280;65652;53.132;18.026;2023-03-01T03:27:49;102475.60;;;-1.97;66.56
76728;BME280;65652;53.132;18.026;2023-03-01T03:30:30;102469.02;;;-1.97;66.36
76728;BME280;65652;53.132;18.026;2023-03-01T03:32:58;102463.80;;;-1.94;66.51
76728;BME280;65652;53.132;18.026;2023-03-01T03:35:27;102462.40;;;-1.92;66.35
76728;BME280;65652;53.132;18.026;2023-03-01T03:37:57;102456.83;;;-1.89;66.28
76728;BME280;65652;53.132;18.026;2023-03-01T03:40:40;102450.93;;;-1.86;66.25
76728;BME280;65652;53.132;18.026;2023-03-01T03:43:09;102451.76;;;-1.83;66.31
76728;BME280;65652;53.132;18.026;2023-03-01T03:45:36;102444.11;;;-1.78;66.42
76728;BME280;65652;53.132;18.026;2023-03-01T03:48:03;102443.23;;;-1.75;66.38
76728;BME280;65652;53.132;18.026;2023-03-01T03:50:31;102441.83;;;-1.73;66.10
76728;BME280;65652;53.132;18.026;2023-03-01T03:53:01;102442.14;;;-1.70;66.30
76728;BME280;65652;53.132;18.026;2023-03-01T03:55:27;102443.52;;;-1.69;66.18
76728;BME280;65652;53.132;18.026;2023-03-01T03:58:00;102445.05;;;-1.68;66.25
76728;BME280;65652;53.132;18.026;2023-03-01T04:00:28;102448.19;;;-1.69;66.18
76728;BME280;65652;53.132;18.026;2023-03-01T04:02:54;102447.48;;;-1.68;66.16
76728;BME280;65652;53.132;18.026;2023-03-01T04:05:22;102449.37;;;-1.66;66.08
76728;BME280;65652;53.132;18.026;2023-03-01T04:07:49;102447.81;;;-1.64;66.21
76728;BME280;65652;53.132;18.026;2023-03-01T04:10:18;102452.66;;;-1.63;66.09
76728;BME280;65652;53.132;18.026;2023-03-01T04:12:44;102456.63;;;-1.63;66.10
76728;BME280;65652;53.132;18.026;2023-03-01T04:15:11;102456.63;;;-1.62;66.32
76728;BME280;65652;53.132;18.026;2023-03-01T04:17:42;102458.68;;;-1.60;66.11
76728;BME280;65652;53.132;18.026;2023-03-01T04:20:10;102455.02;;;-1.59;66.18
76728;BME280;65652;53.132;18.026;2023-03-01T04:22:38;102456.57;;;-1.57;66.22
76728;BME280;65652;53.132;18.026;2023-03-01T04:25:05;102458.98;;;-1.55;65.97
76728;BME280;65652;53.132;18.026;2023-03-01T04:27:35;102457.77;;;-1.54;66.03
76728;BME280;65652;53.132;18.026;2023-03-01T04:30:03;102460.16;;;-1.52;66.07
76728;BME280;65652;53.132;18.026;2023-03-01T04:32:29;102459.63;;;-1.51;66.00
76728;BME280;65652;53.132;18.026;2023-03-01T04:34:55;102455.10;;;-1.49;66.08
76728;BME280;65652;53.132;18.026;2023-03-01T04:37:21;102445.73;;;-1.46;65.98
76728;BME280;65652;53.132;18.026;2023-03-01T04:39:48;102438.78;;;-1.46;65.84
76728;BME280;65652;53.132;18.026;2023-03-01T04:42:15;102437.91;;;-1.44;65.96
76728;BME280;65652;53.132;18.026;2023-03-01T04:44:43;102438.08;;;-1.43;65.97
76728;BME280;65652;53.132;18.026;2023-03-01T04:47:09;102437.02;;;-1.42;65.99
76728;BME280;65652;53.132;18.026;2023-03-01T04:49:36;102437.35;;;-1.41;65.94
76728;BME280;65652;53.132;18.026;2023-03-01T04:52:03;102438.55;;;-1.39;65.91
76728;BME280;65652;53.132;18.026;2023-03-01T04:54:33;102433.52;;;-1.39;66.05
76728;BME280;65652;53.132;18.026;2023-03-01T04:57:00;102427.80;;;-1.39;65.92
76728;BME280;65652;53.132;18.026;2023-03-01T04:59:27;102426.59;;;-1.38;65.94
76728;BME280;65652;53.132;18.026;2023-03-01T05:01:55;102427.44;;;-1.37;65.92
76728;BME280;65652;53.132;18.026;2023-03-01T05:04:22;102422.94;;;-1.37;66.01
76728;BME280;65652;53.132;18.026;2023-03-01T05:06:48;102425.36;;;-1.37;66.01
76728;BME280;65652;53.132;18.026;2023-03-01T05:09:15;102428.83;;;-1.37;65.98
76728;BME280;65652;53.132;18.026;2023-03-01T05:11:41;102427.79;;;-1.36;66.01
76728;BME280;65652;53.132;18.026;2023-03-01T05:14:08;102434.36;;;-1.36;66.08
76728;BME280;65652;53.132;18.026;2023-03-01T05:16:35;102437.65;;;-1.36;66.07
76728;BME280;65652;53.132;18.026;2023-03-01T05:19:03;102440.09;;;-1.37;66.22
76728;BME280;65652;53.132;18.026;2023-03-01T05:21:38;102438.38;;;-1.40;66.11
76728;BME280;65652;53.132;18.026;2023-03-01T05:24:28;102437.35;;;-1.41;66.20
76728;BME280;65652;53.132;18.026;2023-03-01T05:26:55;102439.60;;;-1.40;66.17
76728;BME280;65652;53.132;18.026;2023-03-01T05:29:22;102432.65;;;-1.39;66.14
76728;BME280;65652;53.132;18.026;2023-03-01T05:31:58;102430.05;;;-1.39;66.24
76728;BME280;65652;53.132;18.026;2023-03-01T05:34:25;102428.35;;;-1.40;66.18
76728;BME280;65652;53.132;18.026;2023-03-01T05:36:52;102425.39;;;-1.42;66.15
76728;BME280;65652;53.132;18.026;2023-03-01T05:39:20;102427.86;;;-1.43;66.47
76728;BME280;65652;53.132;18.026;2023-03-01T05:41:47;102432.77;;;-1.49;66.48
76728;BME280;65652;53.132;18.026;2023-03-01T05:44:14;102426.40;;;-1.53;66.71
76728;BME280;65652;53.132;18.026;2023-03-01T05:46:40;102427.48;;;-1.57;66.81
76728;BME280;65652;53.132;18.026;2023-03-01T05:49:06;102429.91;;;-1.60;67.03
76728;BME280;65652;53.132;18.026;2023-03-01T05:51:32;102429.61;;;-1.62;66.90
76728;BME280;65652;53.132;18.026;2023-03-01T05:53:59;102427.55;;;-1.64;67.23
76728;BME280;65652;53.132;18.026;2023-03-01T05:56:25;102427.73;;;-1.65;67.13
76728;BME280;65652;53.132;18.026;2023-03-01T05:58:52;102430.32;;;-1.65;67.24
76728;BME280;65652;53.132;18.026;2023-03-01T06:01:18;102433.27;;;-1.67;67.25
76728;BME280;65652;53.132;18.026;2023-03-01T06:03:44;102432.77;;;-1.67;67.30
76728;BME280;65652;53.132;18.026;2023-03-01T06:06:10;102434.66;;;-1.67;67.42
76728;BME280;65652;53.132;18.026;2023-03-01T06:08:36;102435.19;;;-1.67;67.55
76728;BME280;65652;53.132;18.026;2023-03-01T06:11:02;102437.44;;;-1.67;67.54
76728;BME280;65652;53.132;18.026;2023-03-01T06:13:29;102435.54;;;-1.66;67.50
76728;BME280;65652;53.132;18.026;2023-03-01T06:15:55;102440.02;;;-1.65;67.64
76728;BME280;65652;53.132;18.026;2023-03-01T06:18:21;102437.92;;;-1.63;67.57
76728;BME280;65652;53.132;18.026;2023-03-01T06:20:54;102442.73;;;-1.58;67.72
76728;BME280;65652;53.132;18.026;2023-03-01T06:23:22;102445.19;;;-1.45;68.36
76728;BME280;65652;53.132;18.026;2023-03-01T06:25:49;102447.00;;;-1.34;67.78
76728;BME280;65652;53.132;18.026;2023-03-01T06:28:15;102442.26;;;-1.29;67.50
76728;BME280;65652;53.132;18.026;2023-03-01T06:30:41;102441.52;;;-1.24;67.29
76728;BME280;65652;53.132;18.026;2023-03-01T06:33:08;102444.60;;;-1.20;67.29
76728;BME280;65652;53.132;18.026;2023-03-01T06:35:34;102448.02;;;-1.17;67.18
76728;BME280;65652;53.132;18.026;2023-03-01T06:38:02;102449.91;;;-1.15;67.41
76728;BME280;65652;53.132;18.026;2023-03-01T06:40:30;102453.71;;;-1.15;67.25
76728;BME280;65652;53.132;18.026;2023-03-01T06:42:57;102452.51;;;-1.16;67.17
76728;BME280;65652;53.132;18.026;2023-03-01T06:45:24;102453.54;;;-1.15;67.24
76728;BME280;65652;53.132;18.026;2023-03-01T06:47:50;102455.08;;;-1.13;67.30
76728;BME280;65652;53.132;18.026;2023-03-01T06:50:17;102455.05;;;-1.09;67.28
76728;BME280;65652;53.132;18.026;2023-03-01T06:52:44;102456.90;;;-1.05;67.29
76728;BME280;65652;53.132;18.026;2023-03-01T06:55:12;102453.39;;;-1.00;67.29
76728;BME280;65652;53.132;18.026;2023-03-01T06:57:39;102447.78;;;-0.96;67.33
76728;BME280;65652;53.132;18.026;2023-03-01T07:00:06;102439.95;;;-0.94;67.23
76728;BME280;65652;53.132;18.026;2023-03-01T07:02:32;102437.84;;;-0.90;67.19
76728;BME280;65652;53.132;18.026;2023-03-01T07:04:59;102434.31;;;-0.86;67.27
76728;BME280;65652;53.132;18.026;2023-03-01T07:07:25;102439.28;;;-0.82;67.12
76728;BME280;65652;53.132;18.026;2023-03-01T07:09:51;102430.67;;;-0.73;67.12
76728;BME280;65652;53.132;18.026;2023-03-01T07:12:19;102431.08;;;-0.65;66.95
76728;BME280;65652;53.132;18.026;2023-03-01T07:14:45;102428.91;;;-0.58;66.79
76728;BME280;65652;53.132;18.026;2023-03-01T07:17:11;102428.80;;;-0.50;66.62
76728;BME280;65652;53.132;18.026;2023-03-01T07:19:37;102429.56;;;-0.42;66.55
76728;BME280;65652;53.132;18.026;2023-03-01T07:22:04;102422.82;;;-0.33;66.41
76728;BME280;65652;53.132;18.026;2023-03-01T07:24:30;102413.46;;;-0.22;66.28
76728;BME280;65652;53.132;18.026;2023-03-01T07:26:56;102406.83;;;-0.08;66.12
76728;BME280;65652;53.132;18.026;2023-03-01T07:29:22;102408.25;;;0.11;66.04
76728;BME280;65652;53.132;18.026;2023-03-01T07:31:48;102405.02;;;0.28;65.76
76728;BME280;65652;53.132;18.026;2023-03-01T07:34:14;102404.52;;;0.45;65.44
76728;BME280;65652;53.132;18.026;2023-03-01T07:36:41;102407.79;;;0.65;65.47
76728;BME280;65652;53.132;18.026;2023-03-01T07:39:10;102408.70;;;0.81;64.77
76728;BME280;65652;53.132;18.026;2023-03-01T07:41:36;102403.99;;;0.91;64.21
76728;BME280;65652;53.132;18.026;2023-03-01T07:44:02;102400.52;;;0.90;64.40
76728;BME280;65652;53.132;18.026;2023-03-01T07:46:28;102397.66;;;0.94;64.41
76728;BME280;65652;53.132;18.026;2023-03-01T07:48:55;102396.61;;;1.03;64.34
76728;BME280;65652;53.132;18.026;2023-03-01T07:51:21;102396.77;;;1.12;64.28
76728;BME280;65652;53.132;18.026;2023-03-01T07:53:47;102394.21;;;1.17;63.72
76728;BME280;65652;53.132;18.026;2023-03-01T07:56:15;102395.70;;;1.21;64.00
76728;BME280;65652;53.132;18.026;2023-03-01T07:58:45;102398.02;;;1.34;64.31
76728;BME280;65652;53.132;18.026;2023-03-01T08:01:16;102394.05;;;1.56;63.99
76728;BME280;65652;53.132;18.026;2023-03-01T08:03:43;102392.02;;;1.76;63.58
76728;BME280;65652;53.132;18.026;2023-03-01T08:06:11;102385.65;;;1.87;63.32
76728;BME280;65652;53.132;18.026;2023-03-01T08:08:37;102383.04;;;2.01;63.11
76728;BME280;65652;53.132;18.026;2023-03-01T08:11:05;102378.61;;;2.17;63.01
76728;BME280;65652;53.132;18.026;2023-03-01T08:13:33;102377.73;;;2.38;62.73
76728;BME280;65652;53.132;18.026;2023-03-01T08:16:17;102380.03;;;2.49;62.60
76728;BME280;65652;53.132;18.026;2023-03-01T08:18:43;102385.04;;;2.71;62.74
76728;BME280;65652;53.132;18.026;2023-03-01T08:21:12;102388.44;;;2.86;62.11
76728;BME280;65652;53.132;18.026;2023-03-01T08:23:40;102384.51;;;2.84;62.09
76728;BME280;65652;53.132;18.026;2023-03-01T08:26:11;102387.02;;;2.87;62.15
76728;BME280;65652;53.132;18.026;2023-03-01T08:28:39;102382.54;;;2.91;62.13
76728;BME280;65652;53.132;18.026;2023-03-01T08:31:21;102390.02;;;2.92;62.27
76728;BME280;65652;53.132;18.026;2023-03-01T08:33:48;102389.05;;;2.95;62.50
76728;BME280;65652;53.132;18.026;2023-03-01T08:36:17;102391.56;;;2.98;62.42
76728;BME280;65652;53.132;18.026;2023-03-01T08:38:43;102395.52;;;3.06;62.53
76728;BME280;65652;53.132;18.026;2023-03-01T08:41:10;102394.09;;;3.14;62.49
76728;BME280;65652;53.132;18.026;2023-03-01T08:43:36;102389.15;;;3.33;62.37
76728;BME280;65652;53.132;18.026;2023-03-01T08:46:02;102382.42;;;3.58;62.09
76728;BME280;65652;53.132;18.026;2023-03-01T08:48:28;102382.33;;;3.83;61.90
76728;BME280;65652;53.132;18.026;2023-03-01T08:50:55;102379.23;;;4.08;61.60
76728;BME280;65652;53.132;18.026;2023-03-01T08:53:21;102383.47;;;4.37;61.53
76728;BME280;65652;53.132;18.026;2023-03-01T08:55:47;102384.80;;;4.73;61.09
76728;BME280;65652;53.132;18.026;2023-03-01T08:58:14;102380.23;;;5.12;60.80
76728;BME280;65652;53.132;18.026;2023-03-01T09:00:40;102379.47;;;5.36;59.15
76728;BME280;65652;53.132;18.026;2023-03-01T09:03:06;102383.33;;;5.49;59.47
76728;BME280;65652;53.132;18.026;2023-03-01T09:05:33;102376.98;;;5.68;59.26
76728;BME280;65652;53.132;18.026;2023-03-01T09:08:00;102375.28;;;5.93;59.01
76728;BME280;65652;53.132;18.026;2023-03-01T09:10:26;102371.05;;;6.27;59.03
76728;BME280;65652;53.132;18.026;2023-03-01T09:12:52;102372.02;;;6.69;57.87
76728;BME280;65652;53.132;18.026;2023-03-01T09:15:18;102375.58;;;6.75;56.91
76728;BME280;65652;53.132;18.026;2023-03-01T09:17:45;102375.98;;;6.74;57.57
76728;BME280;65652;53.132;18.026;2023-03-01T09:20:11;102375.71;;;6.96;57.73
76728;BME280;65652;53.132;18.026;2023-03-01T09:22:37;102371.54;;;7.29;57.07
76728;BME280;65652;53.132;18.026;2023-03-01T09:25:03;102370.73;;;7.57;56.92
76728;BME280;65652;53.132;18.026;2023-03-01T09:27:30;102368.69;;;7.91;56.56
76728;BME280;65652;53.132;18.026;2023-03-01T09:29:56;102365.66;;;8.23;55.86
76728;BME280;65652;53.132;18.026;2023-03-01T09:32:22;102364.19;;;8.45;55.34
76728;BME280;65652;53.132;18.026;2023-03-01T09:34:48;102359.30;;;8.61;54.79
76728;BME280;65652;53.132;18.026;2023-03-01T09:37:26;102359.16;;;8.77;54.75
76728;BME280;65652;53.132;18.026;2023-03-01T09:39:53;102355.46;;;8.80;54.38
76728;BME280;65652;53.132;18.026;2023-03-01T09:42:19;102352.66;;;8.86;54.70
76728;BME280;65652;53.132;18.026;2023-03-01T09:44:49;102350.91;;;9.05;54.79
76728;BME280;65652;53.132;18.026;2023-03-01T09:47:19;102345.66;;;9.36;54.29
76728;BME280;65652;53.132;18.026;2023-03-01T09:50:15;102344.70;;;9.66;53.71
76728;BME280;65652;53.132;18.026;2023-03-01T09:52:43;102341.55;;;9.93;53.38
76728;BME280;65652;53.132;18.026;2023-03-01T09:55:24;102340.77;;;10.09;53.18
76728;BME280;65652;53.132;18.026;2023-03-01T09:58:33;102339.42;;;10.29;52.76
76728;BME280;65652;53.132;18.026;2023-03-01T10:00:59;102336.77;;;10.49;52.59
76728;BME280;65652;53.132;18.026;2023-03-01T10:11:26;102322.50;;;10.94;50.87
76728;BME280;65652;53.132;18.026;2023-03-01T10:14:18;102320.70;;;10.89;51.22
76728;BME280;65652;53.132;18.026;2023-03-01T10:16:58;102318.37;;;10.97;50.75
76728;BME280;65652;53.132;18.026;2023-03-01T10:19:44;102313.86;;;11.07;49.96
76728;BME280;65652;53.132;18.026;2023-03-01T10:22:16;102310.69;;;10.93;50.56
76728;BME280;65652;53.132;18.026;2023-03-01T10:24:48;102303.10;;;11.09;50.92
76728;BME280;65652;53.132;18.026;2023-03-01T10:30:32;102293.05;;;11.55;49.22
76728;BME280;65652;53.132;18.026;2023-03-01T10:33:00;102287.63;;;11.27;48.58
76728;BME280;65652;53.132;18.026;2023-03-01T10:35:29;102282.39;;;11.12;49.91
76728;BME280;65652;53.132;18.026;2023-03-01T10:38:03;102279.11;;;11.17;49.65
76728;BME280;65652;53.132;18.026;2023-03-01T10:40:30;102281.23;;;11.28;49.35
76728;BME280;65652;53.132;18.026;2023-03-01T10:43:04;102283.98;;;11.39;49.81
76728;BME280;65652;53.132;18.026;2023-03-01T10:45:36;102281.45;;;11.53;49.39
76728;BME280;65652;53.132;18.026;2023-03-01T10:50:45;102280.34;;;11.97;49.31
76728;BME280;65652;53.132;18.026;2023-03-01T10:53:27;102272.15;;;12.23;48.70
76728;BME280;65652;53.132;18.026;2023-03-01T10:56:08;102266.20;;;12.42;47.11
76728;BME280;65652;53.132;18.026;2023-03-01T10:58:37;102259.05;;;12.23;48.01
76728;BME280;65652;53.132;18.026;2023-03-01T11:01:06;102257.22;;;12.34;48.03
76728;BME280;65652;53.132;18.026;2023-03-01T11:03:35;102252.77;;;12.47;47.55
76728;BME280;65652;53.132;18.026;2023-03-01T11:08:42;102249.81;;;12.76;47.26
76728;BME280;65652;53.132;18.026;2023-03-01T11:13:36;102251.97;;;13.00;46.79
76728;BME280;65652;53.132;18.026;2023-03-01T11:16:11;102244.20;;;13.09;46.38
76728;BME280;65652;53.132;18.026;2023-03-01T11:18:38;102244.40;;;13.11;46.69
76728;BME280;65652;53.132;18.026;2023-03-01T11:21:05;102243.09;;;13.46;46.65
76728;BME280;65652;53.132;18.026;2023-03-01T11:23:37;102239.56;;;13.78;45.66
76728;BME280;65652;53.132;18.026;2023-03-01T11:26:07;102232.79;;;13.99;45.05
76728;BME280;65652;53.132;18.026;2023-03-01T11:28:37;102228.73;;;14.03;44.33
76728;BME280;65652;53.132;18.026;2023-03-01T11:31:10;102223.41;;;14.01;44.88
76728;BME280;65652;53.132;18.026;2023-03-01T11:36:36;102228.99;;;13.63;43.65
76728;BME280;65652;53.132;18.026;2023-03-01T11:39:31;102224.36;;;13.45;44.20
76728;BME280;65652;53.132;18.026;2023-03-01T11:45:15;102221.49;;;13.21;43.56
76728;BME280;65652;53.132;18.026;2023-03-01T11:50:42;102211.88;;;13.33;43.73
76728;BME280;65652;53.132;18.026;2023-03-01T11:59:11;102214.15;;;14.01;42.64
76728;BME280;65652;53.132;18.026;2023-03-01T12:04:22;102213.30;;;13.82;41.56
76728;BME280;65652;53.132;18.026;2023-03-01T12:08:28;102217.04;;;13.75;41.74
76728;BME280;65652;53.132;18.026;2023-03-01T12:10:22;102220.80;;;13.68;42.41
76728;BME280;65652;53.132;18.026;2023-03-01T12:27:13;102219.48;;;14.22;41.97
76728;BME280;65652;53.132;18.026;2023-03-01T12:38:05;102215.09;;;14.56;41.65
76728;BME280;65652;53.132;18.026;2023-03-01T12:41:01;102208.52;;;14.70;41.49
76728;BME280;65652;53.132;18.026;2023-03-01T12:43:53;102204.64;;;14.80;41.85
76728;BME280;65652;53.132;18.026;2023-03-01T12:46:27;102195.56;;;15.12;41.14
76728;BME280;65652;53.132;18.026;2023-03-01T12:49:16;102195.46;;;15.10;41.37
76728;BME280;65652;53.132;18.026;2023-03-01T12:54:38;102187.60;;;15.42;40.65
76728;BME280;65652;53.132;18.026;2023-03-01T12:59:41;102187.66;;;15.26;40.70
76728;BME280;65652;53.132;18.026;2023-03-01T13:02:32;102182.98;;;15.22;40.37
76728;BME280;65652;53.132;18.026;2023-03-01T13:13:07;102176.92;;;15.44;39.34
76728;BME280;65652;53.132;18.026;2023-03-01T13:15:37;102176.99;;;15.05;40.04
76728;BME280;65652;53.132;18.026;2023-03-01T13:31:03;102171.76;;;15.10;40.05
76728;BME280;65652;53.132;18.026;2023-03-01T13:35:57;102172.42;;;16.46;38.91
76728;BME280;65652;53.132;18.026;2023-03-01T13:41:17;102154.77;;;18.72;36.56
76728;BME280;65652;53.132;18.026;2023-03-01T13:46:47;102148.75;;;21.82;33.47
76728;BME280;65652;53.132;18.026;2023-03-01T13:49:16;102137.32;;;23.24;32.20
76728;BME280;65652;53.132;18.026;2023-03-01T13:51:48;102129.84;;;24.49;30.93
76728;BME280;65652;53.132;18.026;2023-03-01T13:54:16;102122.94;;;25.56;29.13
76728;BME280;65652;53.132;18.026;2023-03-01T13:56:44;102122.13;;;25.87;27.94
76728;BME280;65652;53.132;18.026;2023-03-01T13:59:16;102117.07;;;26.14;27.95
76728;BME280;65652;53.132;18.026;2023-03-01T14:01:43;102115.56;;;26.53;27.43
76728;BME280;65652;53.132;18.026;2023-03-01T14:04:23;102113.12;;;27.06;27.04
76728;BME280;65652;53.132;18.026;2023-03-01T14:06:49;102106.23;;;27.62;26.25
76728;BME280;65652;53.132;18.026;2023-03-01T14:09:22;102109.95;;;28.01;25.51
76728;BME280;65652;53.132;18.026;2023-03-01T14:12:02;102110.70;;;28.22;25.12
76728;BME280;65652;53.132;18.026;2023-03-01T14:20:28;102097.68;;;26.96;23.72
76728;BME280;65652;53.132;18.026;2023-03-01T14:22:58;102096.02;;;26.12;23.97
76728;BME280;65652;53.132;18.026;2023-03-01T14:25:33;102092.49;;;25.55;24.66
76728;BME280;65652;53.132;18.026;2023-03-01T14:28:17;102092.81;;;25.09;24.89
76728;BME280;65652;53.132;18.026;2023-03-01T14:30:49;102099.49;;;24.14;25.09
76728;BME280;65652;53.132;18.026;2023-03-01T14:33:20;102100.27;;;22.90;26.12
76728;BME280;65652;53.132;18.026;2023-03-01T14:36:02;102100.42;;;21.56;27.07
76728;BME280;65652;53.132;18.026;2023-03-01T14:38:31;102103.41;;;20.06;28.38
76728;BME280;65652;53.132;18.026;2023-03-01T14:41:02;102103.86;;;19.31;29.33
76728;BME280;65652;53.132;18.026;2023-03-01T14:43:30;102106.10;;;18.77;29.88
76728;BME280;65652;53.132;18.026;2023-03-01T14:45:57;102102.89;;;18.41;30.55
76728;BME280;65652;53.132;18.026;2023-03-01T14:48:23;102100.98;;;18.15;31.18